LSZA Airport Information

Runway Information
Runway 01 Length 4429 ft width 98 ft
Elevation 896 ft Threshold 361 ft Heading 19
Runway 19 Length 4429 ft Width 98 ft
Elevation 915 ft Threshold 672 ft Heading 199
Airport Frequencies
Type ATIS Name ATIS Frequency 121.175 MHZ
Type GND Name GND Frequency 121.775 MHZ
Type TWR Name TWR Frequency 120.25 MHZ
Airport Navaids
Airport Weather Information & NOTAM
ADDS - METARS form results

(0337 UTC 20 January 2019)
Data provider http://aviationweather.gov/metar/data/
 
METAR text: LSZA 200320Z AUTO 01003KT 9000 NSC M03/M04 Q1014
Conditions at: LSZA (LUGANO (PVT/AUT), CH) observed 0320 UTC 20 January 2019
Temperature: -3.0°C (27°F)
Dewpoint: -4.0°C (25°F) [RH = 93%]
Pressure (altimeter): 29.94 inches Hg (1014.0 mb)
Winds: from the N (10 degrees) at 3 MPH (3 knots; 1.5 m/s)
Visibility: 6 miles ( 9 km)
Ceiling: at least 12,000 feet AGL
Clouds: sky clear below 12,000 feet AGL
Weather: no significant weather observed at this time

METAR text: LSZA 200250Z AUTO VRB01KT 8000 NSC M03/M03 Q1014
Conditions at: LSZA (LUGANO (PVT/AUT), CH) observed 0250 UTC 20 January 2019
Temperature: -3.0°C (27°F)
Dewpoint: -3.0°C (27°F) [RH = 100%]
Pressure (altimeter): 29.94 inches Hg (1014.0 mb)
Winds: variable direction winds at 1 MPH (1 knots; 0.5 m/s)
Visibility: 5 miles ( 8 km)
Ceiling: at least 12,000 feet AGL
Clouds: sky clear below 12,000 feet AGL
Weather: no significant weather observed at this time